createdAt,value
2023-01-13T00:01:15.960Z,73.34
2023-01-13T00:03:42.964Z,73.05
2023-01-13T00:06:12.950Z,72.98
2023-01-13T00:08:39.452Z,72.07
2023-01-13T00:11:07.083Z,71.23
2023-01-13T00:13:33.557Z,70.21
2023-01-13T00:16:02.120Z,69.52
2023-01-13T00:18:28.792Z,69.22
2023-01-13T00:21:07.028Z,69.16
2023-01-13T00:23:34.841Z,69.14
2023-01-13T00:26:04.458Z,67.78
2023-01-13T00:28:31.048Z,66.61
2023-01-13T00:31:04.931Z,66.27
2023-01-13T00:33:31.458Z,65.50
2023-01-13T00:36:02.018Z,65.56
2023-01-13T00:38:30.713Z,65.81
2023-01-13T00:40:57.102Z,65.67
2023-01-13T00:43:23.626Z,65.09
2023-01-13T00:45:50.205Z,64.95
2023-01-13T00:48:17.098Z,64.78
2023-01-13T00:50:43.689Z,66.50
2023-01-13T00:53:10.193Z,66.18
2023-01-13T00:55:36.700Z,66.51
2023-01-13T00:58:03.169Z,66.35
2023-01-13T01:00:30.820Z,66.24
2023-01-13T01:02:57.593Z,67.33
2023-01-13T01:05:24.185Z,68.40
2023-01-13T01:07:50.770Z,68.51
2023-01-13T01:10:17.661Z,68.76
2023-01-13T01:12:44.239Z,69.70
2023-01-13T01:15:11.229Z,69.87
2023-01-13T01:17:37.688Z,69.53
2023-01-13T01:20:05.025Z,70.05
2023-01-13T01:22:31.656Z,69.82
2023-01-13T01:24:58.122Z,70.20
2023-01-13T01:27:24.620Z,69.54
2023-01-13T01:29:51.172Z,69.75
2023-01-13T01:32:17.678Z,68.44
2023-01-13T01:34:44.164Z,67.86
2023-01-13T01:37:10.635Z,68.03
2023-01-13T01:39:37.114Z,68.22
2023-01-13T01:42:03.773Z,67.58
2023-01-13T01:44:42.581Z,68.23
2023-01-13T01:47:10.885Z,67.56
2023-01-13T01:49:38.755Z,67.42
2023-01-13T01:52:14.966Z,66.61
2023-01-13T01:55:06.294Z,66.84
2023-01-13T01:57:37.303Z,67.92
2023-01-13T02:00:04.590Z,67.62
2023-01-13T02:02:31.216Z,68.02
2023-01-13T02:04:59.172Z,67.47
2023-01-13T02:07:31.050Z,67.65
2023-01-13T02:09:59.898Z,68.05
2023-01-13T02:12:27.126Z,68.60
2023-01-13T02:14:53.605Z,68.05
2023-01-13T02:17:38.404Z,68.58
2023-01-13T02:20:13.636Z,69.62
2023-01-13T02:23:09.600Z,69.29
2023-01-13T02:25:53.897Z,69.04
2023-01-13T02:28:40.454Z,68.93
2023-01-13T02:31:09.593Z,68.44
2023-01-13T02:33:47.699Z,69.64
2023-01-13T02:36:34.789Z,69.43
2023-01-13T02:39:08.791Z,69.48
2023-01-13T02:41:41.078Z,69.06
2023-01-13T02:44:09.631Z,69.01
2023-01-13T02:46:54.640Z,69.29
2023-01-13T02:49:34.824Z,68.66
2023-01-13T02:52:12.981Z,68.61
2023-01-13T02:54:42.304Z,68.98
2023-01-13T02:57:10.345Z,68.60
2023-01-13T02:59:37.618Z,68.58
2023-01-13T03:02:04.530Z,68.31
2023-01-13T03:04:49.557Z,68.27
2023-01-13T03:07:54.214Z,69.06
2023-01-13T03:10:44.185Z,69.00
2023-01-13T03:13:19.765Z,68.35
2023-01-13T03:16:12.330Z,69.57
2023-01-13T03:18:42.993Z,69.29
2023-01-13T03:21:24.553Z,69.64
2023-01-13T03:23:57.529Z,69.53
2023-01-13T03:26:50.285Z,70.04
2023-01-13T03:29:19.773Z,69.97
2023-01-13T03:31:58.013Z,70.64
2023-01-13T03:34:30.302Z,70.68
2023-01-13T03:36:57.962Z,71.04
2023-01-13T03:39:36.158Z,70.50
2023-01-13T03:42:07.606Z,70.96
2023-01-13T03:44:38.737Z,71.50
2023-01-13T03:47:30.037Z,71.72
2023-01-13T03:50:06.825Z,73.49
2023-01-13T03:52:36.687Z,73.66
2023-01-13T03:55:26.117Z,73.35
2023-01-13T03:57:56.223Z,72.70
2023-01-13T04:00:26.156Z,72.21
2023-01-13T04:03:24.082Z,73.85
2023-01-13T04:05:53.909Z,74.18
2023-01-13T04:08:25.634Z,73.84
2023-01-13T04:11:12.134Z,74.00
2023-01-13T04:13:40.689Z,74.28
2023-01-13T04:16:08.476Z,74.49
2023-01-13T04:18:37.687Z,76.24
2023-01-13T04:21:07.295Z,76.69
2023-01-13T04:23:33.900Z,77.34
2023-01-13T04:26:00.409Z,78.61
2023-01-13T04:28:26.938Z,79.57
2023-01-13T04:30:53.516Z,80.82
2023-01-13T04:33:20.212Z,81.61
2023-01-13T04:35:47.623Z,82.64
2023-01-13T04:38:17.673Z,83.29
2023-01-13T04:40:44.837Z,83.10
2023-01-13T04:43:11.984Z,84.07
2023-01-13T04:45:38.852Z,83.61
2023-01-13T04:48:05.708Z,84.25
2023-01-13T04:50:32.320Z,84.57
2023-01-13T04:52:58.907Z,85.36
2023-01-13T04:55:25.453Z,85.07
2023-01-13T04:57:52.139Z,85.94
2023-01-13T05:00:20.819Z,86.24
2023-01-13T05:02:50.177Z,86.54
2023-01-13T05:05:16.748Z,85.85
2023-01-13T05:07:43.341Z,86.09
2023-01-13T05:10:10.481Z,85.04
2023-01-13T05:12:37.632Z,86.50
2023-01-13T05:15:06.765Z,86.57
2023-01-13T05:17:33.469Z,87.40
2023-01-13T05:19:59.963Z,86.90
2023-01-13T05:22:26.525Z,87.46
2023-01-13T05:24:53.015Z,86.60
2023-01-13T05:27:19.606Z,87.04
2023-01-13T05:29:46.101Z,87.19
2023-01-13T05:32:12.590Z,87.12
2023-01-13T05:34:39.102Z,87.21
2023-01-13T05:37:05.722Z,87.49
2023-01-13T05:39:33.353Z,87.44
2023-01-13T05:41:59.867Z,87.90
2023-01-13T05:44:26.367Z,88.11
2023-01-13T05:46:53.037Z,86.99
2023-01-13T05:49:19.550Z,87.97
2023-01-13T05:51:46.059Z,87.61
2023-01-13T05:54:12.545Z,87.56
2023-01-13T05:56:39.013Z,88.74
2023-01-13T05:59:05.548Z,88.28
2023-01-13T06:01:32.066Z,88.38
2023-01-13T06:03:58.678Z,87.88
2023-01-13T06:06:25.162Z,88.08
2023-01-13T06:08:51.713Z,87.76
2023-01-13T06:11:19.385Z,87.73
2023-01-13T06:13:46.388Z,87.79
2023-01-13T06:16:12.970Z,86.30
2023-01-13T06:18:39.463Z,86.56
2023-01-13T06:21:06.167Z,85.98
2023-01-13T06:23:32.696Z,86.92
2023-01-13T06:26:05.913Z,88.79
2023-01-13T06:28:32.487Z,89.35
2023-01-13T06:31:01.077Z,89.11
2023-01-13T06:33:35.332Z,89.17
2023-01-13T06:36:06.246Z,88.82
2023-01-13T06:38:34.607Z,88.78
2023-01-13T06:41:01.071Z,88.65
2023-01-13T06:43:27.843Z,88.39
2023-01-13T06:45:55.711Z,88.11
2023-01-13T06:48:24.438Z,87.65
2023-01-13T06:50:51.149Z,87.96
2023-01-13T06:53:17.928Z,87.27
2023-01-13T06:55:44.421Z,87.00
2023-01-13T06:58:11.052Z,87.41
2023-01-13T07:00:37.693Z,88.80
2023-01-13T07:03:12.176Z,88.63
2023-01-13T07:05:39.295Z,89.07
2023-01-13T07:08:06.812Z,88.42
2023-01-13T07:10:34.105Z,88.50
2023-01-13T07:13:04.712Z,88.18
2023-01-13T07:15:31.394Z,89.34
2023-01-13T07:17:59.182Z,90.04
2023-01-13T07:20:25.746Z,88.78
2023-01-13T07:22:57.562Z,89.29
2023-01-13T07:25:24.134Z,88.43
2023-01-13T07:27:50.869Z,89.12
2023-01-13T07:30:17.755Z,89.37
2023-01-13T07:32:44.269Z,89.79
2023-01-13T07:35:10.752Z,91.02
2023-01-13T07:37:37.787Z,90.81
2023-01-13T07:40:04.983Z,89.97
2023-01-13T07:42:31.536Z,90.20
2023-01-13T07:44:58.058Z,90.33
2023-01-13T07:47:24.539Z,90.20
2023-01-13T07:49:51.046Z,90.99
2023-01-13T07:52:17.732Z,91.50
2023-01-13T07:54:44.238Z,90.64
2023-01-13T07:57:10.808Z,90.77
2023-01-13T07:59:37.380Z,91.31
2023-01-13T08:02:04.107Z,90.57
2023-01-13T08:04:30.911Z,90.35
2023-01-13T08:06:57.430Z,90.74
2023-01-13T08:09:23.994Z,90.51
2023-01-13T08:11:54.361Z,90.37
2023-01-13T08:14:22.325Z,90.03
2023-01-13T08:16:49.030Z,90.14
2023-01-13T08:19:15.701Z,90.72
2023-01-13T08:21:42.144Z,90.24
2023-01-13T08:24:10.274Z,90.76
2023-01-13T08:26:36.734Z,90.30
2023-01-13T08:29:03.252Z,89.88
2023-01-13T08:31:29.804Z,90.37
2023-01-13T08:33:58.530Z,89.71
2023-01-13T08:36:25.244Z,88.54
2023-01-13T08:38:52.079Z,89.04
2023-01-13T08:41:18.608Z,89.18
2023-01-13T08:43:45.180Z,88.01
2023-01-13T08:46:11.837Z,87.34
2023-01-13T08:48:38.656Z,88.05
2023-01-13T08:51:07.696Z,88.93
2023-01-13T08:53:34.327Z,88.85
2023-01-13T08:56:00.975Z,88.89
2023-01-13T08:58:27.455Z,89.11
2023-01-13T09:00:53.978Z,89.27
2023-01-13T09:03:20.563Z,88.53
2023-01-13T09:05:47.087Z,89.68
2023-01-13T09:08:13.615Z,89.79
2023-01-13T09:10:45.130Z,90.16
2023-01-13T09:13:13.556Z,89.96
2023-01-13T09:15:45.288Z,89.56
2023-01-13T09:18:12.403Z,90.86
2023-01-13T09:20:39.957Z,89.63
2023-01-13T09:23:10.096Z,89.50
2023-01-13T09:25:36.899Z,88.33
2023-01-13T09:28:06.149Z,87.99
2023-01-13T09:30:32.651Z,88.55
2023-01-13T09:32:59.726Z,87.42
2023-01-13T09:35:26.330Z,86.76
2023-01-13T09:37:52.915Z,85.29
2023-01-13T09:40:20.751Z,84.26
2023-01-13T09:43:18.144Z,84.09
2023-01-13T09:45:48.245Z,81.64
2023-01-13T09:48:30.581Z,79.49
2023-01-13T09:51:10.853Z,78.98
2023-01-13T09:53:38.901Z,79.30
2023-01-13T09:56:10.573Z,81.23
2023-01-13T09:58:37.228Z,82.75
2023-01-13T10:01:29.982Z,83.38
2023-01-13T10:03:56.474Z,84.11
2023-01-13T10:06:41.152Z,84.75
2023-01-13T10:09:13.805Z,83.01
2023-01-13T10:11:42.426Z,83.15
2023-01-13T10:14:24.830Z,82.93
2023-01-13T10:17:14.973Z,82.47
2023-01-13T10:19:46.515Z,82.27
2023-01-13T10:22:28.179Z,81.09
2023-01-13T10:25:06.936Z,80.64
2023-01-13T10:27:37.740Z,80.82
2023-01-13T10:30:34.668Z,80.14
2023-01-13T10:33:02.960Z,81.12
2023-01-13T10:35:55.777Z,79.48
2023-01-13T10:38:25.076Z,79.02
2023-01-13T10:40:57.323Z,79.25
2023-01-13T10:43:24.240Z,78.45
2023-01-13T10:46:02.591Z,78.74
2023-01-13T10:48:34.760Z,79.01
2023-01-13T10:51:23.456Z,80.05
2023-01-13T10:54:01.851Z,80.23
2023-01-13T10:56:32.219Z,79.18
2023-01-13T10:59:13.894Z,77.74
2023-01-13T11:01:56.726Z,77.85
2023-01-13T11:04:36.780Z,77.81
2023-01-13T11:07:04.332Z,78.90
2023-01-13T11:09:32.310Z,79.90
2023-01-13T11:11:59.265Z,80.86
2023-01-13T11:14:37.568Z,80.44
2023-01-13T11:17:32.478Z,78.82
2023-01-13T11:20:11.266Z,79.44
2023-01-13T11:22:58.503Z,79.41
2023-01-13T11:25:27.795Z,79.15
2023-01-13T11:28:01.057Z,79.41
2023-01-13T11:30:38.862Z,80.44
2023-01-13T11:33:14.397Z,80.79
2023-01-13T11:35:45.910Z,80.30
2023-01-13T11:38:25.930Z,81.13
2023-01-13T11:40:52.612Z,78.90
2023-01-13T11:43:42.146Z,77.76
2023-01-13T11:46:09.923Z,76.81
2023-01-13T11:48:40.806Z,76.33
2023-01-13T11:51:10.171Z,77.60
2023-01-13T11:54:03.510Z,77.13
2023-01-13T11:57:02.284Z,77.94
2023-01-13T11:59:39.726Z,77.00
2023-01-13T12:02:27.705Z,76.31
2023-01-13T12:05:02.762Z,76.13
2023-01-13T12:08:20.477Z,75.19
2023-01-13T12:11:05.648Z,76.44
2023-01-13T12:13:43.918Z,76.70
2023-01-13T12:16:15.287Z,77.23
2023-01-13T12:19:00.044Z,77.65
2023-01-13T12:21:32.633Z,76.93
2023-01-13T12:24:05.909Z,76.13
2023-01-13T12:26:37.396Z,75.22
2023-01-13T12:29:13.188Z,74.92
2023-01-13T12:31:41.793Z,74.48
2023-01-13T12:34:30.277Z,75.80
2023-01-13T12:37:10.080Z,74.23
2023-01-13T12:39:42.505Z,74.93
2023-01-13T12:42:18.822Z,76.68
2023-01-13T12:45:10.076Z,76.80
2023-01-13T12:47:40.139Z,77.37
2023-01-13T12:50:40.434Z,76.28
2023-01-13T12:53:25.189Z,75.61
2023-01-13T12:55:52.024Z,75.95
2023-01-13T12:58:26.511Z,75.53
2023-01-13T13:00:59.180Z,73.80
2023-01-13T13:03:34.415Z,72.73
2023-01-13T13:06:07.053Z,70.97
2023-01-13T13:08:48.517Z,70.96
2023-01-13T13:11:15.057Z,70.20
2023-01-13T13:13:47.126Z,71.38
2023-01-13T13:16:25.953Z,71.37
2023-01-13T13:18:53.540Z,72.10
2023-01-13T13:21:20.164Z,71.92
2023-01-13T13:23:52.907Z,71.91
2023-01-13T13:26:19.316Z,71.37
2023-01-13T13:29:12.045Z,70.78
2023-01-13T13:31:44.497Z,70.10
2023-01-13T13:34:43.384Z,68.85
2023-01-13T13:38:01.098Z,67.27
2023-01-13T13:40:32.658Z,67.07
2023-01-13T13:42:59.368Z,67.49
2023-01-13T13:45:28.759Z,67.40
2023-01-13T13:47:55.328Z,67.45
2023-01-13T13:50:21.949Z,68.70
2023-01-13T13:53:09.059Z,68.12
2023-01-13T13:55:36.669Z,68.93
2023-01-13T13:58:03.152Z,68.46
2023-01-13T14:00:32.102Z,68.91
2023-01-13T14:03:18.953Z,69.08
2023-01-13T14:06:00.051Z,70.14
2023-01-13T14:08:33.022Z,70.16
2023-01-13T14:10:59.615Z,68.97
2023-01-13T14:13:31.205Z,69.06
2023-01-13T14:16:03.304Z,69.29
2023-01-13T14:18:33.868Z,69.61
2023-01-13T14:21:16.614Z,70.65
2023-01-13T14:23:50.870Z,70.62
2023-01-13T14:26:17.789Z,70.42
2023-01-13T14:28:44.585Z,71.06
2023-01-13T14:31:13.250Z,71.62
2023-01-13T14:33:43.516Z,72.11
2023-01-13T14:36:14.548Z,71.66
2023-01-13T14:38:42.394Z,71.75
2023-01-13T14:41:11.769Z,72.43
2023-01-13T14:43:43.267Z,73.33
2023-01-13T14:46:09.850Z,73.28
2023-01-13T14:48:36.651Z,73.62
2023-01-13T14:51:05.901Z,73.87
2023-01-13T14:53:35.390Z,74.19
2023-01-13T14:56:38.835Z,73.67
2023-01-13T14:59:42.512Z,71.32
2023-01-13T15:02:27.770Z,72.24
2023-01-13T15:04:55.082Z,71.47
2023-01-13T15:07:26.749Z,70.74
2023-01-13T15:09:55.770Z,72.70
2023-01-13T15:12:34.172Z,73.72
2023-01-13T15:15:03.691Z,75.11
2023-01-13T15:17:30.445Z,75.26
2023-01-13T15:19:56.929Z,75.05
2023-01-13T15:22:23.518Z,74.60
2023-01-13T15:24:49.985Z,74.22
2023-01-13T15:27:22.539Z,74.88
2023-01-13T15:29:49.269Z,75.52
2023-01-13T15:32:20.556Z,76.63
2023-01-13T15:34:47.715Z,76.28
2023-01-13T15:37:15.561Z,76.60
2023-01-13T15:39:42.007Z,76.25
2023-01-13T15:42:12.232Z,75.88
2023-01-13T15:44:38.628Z,75.28
2023-01-13T15:47:06.997Z,76.72
2023-01-13T15:49:39.971Z,77.28
2023-01-13T15:52:33.100Z,77.51
2023-01-13T15:54:59.672Z,75.96
2023-01-13T15:57:28.229Z,76.02
2023-01-13T15:59:57.993Z,75.34
2023-01-13T16:02:24.989Z,75.46
2023-01-13T16:04:52.201Z,74.44
2023-01-13T16:07:20.802Z,73.22
2023-01-13T16:09:47.419Z,72.29
2023-01-13T16:12:14.005Z,71.20
2023-01-13T16:14:40.838Z,72.07
2023-01-13T16:17:26.768Z,71.39
2023-01-13T16:19:53.302Z,71.11
2023-01-13T16:22:19.852Z,71.29
2023-01-13T16:24:46.485Z,70.70
2023-01-13T16:27:13.411Z,69.76
2023-01-13T16:29:40.387Z,69.85
2023-01-13T16:32:06.866Z,69.68
2023-01-13T16:34:35.214Z,69.66
2023-01-13T16:37:09.427Z,70.04
2023-01-13T16:39:35.964Z,69.39
2023-01-13T16:42:04.244Z,69.47
2023-01-13T16:44:30.790Z,70.36
2023-01-13T16:46:57.364Z,71.11
2023-01-13T16:49:23.939Z,70.83
2023-01-13T16:51:50.468Z,70.74
2023-01-13T16:54:16.974Z,70.81
2023-01-13T16:56:45.724Z,72.46
2023-01-13T16:59:13.521Z,72.36
2023-01-13T17:01:41.599Z,71.74
2023-01-13T17:04:14.925Z,71.77
2023-01-13T17:06:44.851Z,71.26
2023-01-13T17:09:16.737Z,70.39
2023-01-13T17:11:43.668Z,69.87
2023-01-13T17:14:18.983Z,69.89
2023-01-13T17:16:46.381Z,70.69
2023-01-13T17:19:13.781Z,70.86
2023-01-13T17:21:40.416Z,70.52
2023-01-13T17:24:07.157Z,71.51
2023-01-13T17:26:41.698Z,71.49
2023-01-13T17:29:20.889Z,70.92
2023-01-13T17:31:48.263Z,70.71
2023-01-13T17:34:14.977Z,69.92
2023-01-13T17:36:41.549Z,70.49
2023-01-13T17:39:08.179Z,70.47
2023-01-13T17:41:34.700Z,70.53
2023-01-13T17:44:01.257Z,70.81
2023-01-13T17:46:27.798Z,70.57
2023-01-13T17:48:54.782Z,70.64
2023-01-13T17:51:22.245Z,70.25
2023-01-13T17:53:48.791Z,69.98
2023-01-13T17:56:15.394Z,69.28
2023-01-13T17:58:42.059Z,69.24
2023-01-13T18:01:16.492Z,68.34
2023-01-13T18:03:43.407Z,68.05
2023-01-13T18:06:18.614Z,66.03
2023-01-13T18:08:45.928Z,64.29
2023-01-13T18:11:12.955Z,63.48
2023-01-13T18:13:40.452Z,63.04
2023-01-13T18:16:09.432Z,65.26
2023-01-13T18:18:35.984Z,67.56
2023-01-13T18:21:03.636Z,67.67
2023-01-13T18:23:30.190Z,64.62
2023-01-13T18:25:56.674Z,63.88
2023-01-13T18:28:23.303Z,63.77
2023-01-13T18:30:49.907Z,64.07
2023-01-13T18:33:17.062Z,63.81
2023-01-13T18:35:43.604Z,64.48
2023-01-13T18:38:15.916Z,64.13
2023-01-13T18:40:46.695Z,64.18
2023-01-13T18:43:13.502Z,63.99
2023-01-13T18:45:40.104Z,63.58
2023-01-13T18:48:06.979Z,63.14
2023-01-13T18:50:33.659Z,62.94
2023-01-13T18:53:01.224Z,62.06
2023-01-13T18:55:28.029Z,61.67
2023-01-13T18:57:55.598Z,61.72
2023-01-13T19:00:22.870Z,63.43
2023-01-13T19:02:49.900Z,67.41
2023-01-13T19:05:16.662Z,68.78
2023-01-13T19:07:43.988Z,68.53
2023-01-13T19:10:11.398Z,68.67
2023-01-13T19:12:37.981Z,68.75
2023-01-13T19:15:04.874Z,68.49
2023-01-13T19:17:33.065Z,68.39
2023-01-13T19:20:03.744Z,68.04
2023-01-13T19:22:32.931Z,68.02
2023-01-13T19:25:00.301Z,67.86
2023-01-13T19:27:27.512Z,68.14
2023-01-13T19:29:54.391Z,69.04
2023-01-13T19:32:24.283Z,69.00
2023-01-13T19:34:51.011Z,68.28
2023-01-13T19:37:18.701Z,68.78
2023-01-13T19:39:45.337Z,69.65
2023-01-13T19:42:12.180Z,68.68
2023-01-13T19:44:38.739Z,65.66
2023-01-13T19:47:05.369Z,64.17
2023-01-13T19:49:32.833Z,67.09
2023-01-13T19:51:59.762Z,69.54
2023-01-13T19:54:26.568Z,70.22
2023-01-13T19:56:53.099Z,70.84
2023-01-13T19:59:19.592Z,69.87
2023-01-13T20:01:46.159Z,70.63
2023-01-13T20:04:12.697Z,71.62
2023-01-13T20:06:39.707Z,71.72
2023-01-13T20:09:06.740Z,71.69
2023-01-13T20:11:33.245Z,72.05
2023-01-13T20:14:02.800Z,72.60
2023-01-13T20:16:29.944Z,72.39
2023-01-13T20:18:56.678Z,72.37
2023-01-13T20:21:23.237Z,72.00
2023-01-13T20:23:51.360Z,72.59
2023-01-13T20:26:18.686Z,72.89
2023-01-13T20:28:46.497Z,72.77
2023-01-13T20:31:14.019Z,71.99
2023-01-13T20:33:41.051Z,72.67
2023-01-13T20:36:08.426Z,72.83
2023-01-13T20:38:34.889Z,72.71
2023-01-13T20:41:01.693Z,71.89
2023-01-13T20:43:28.255Z,72.16
2023-01-13T20:45:54.788Z,72.06
2023-01-13T20:48:21.815Z,72.27
2023-01-13T20:50:53.358Z,72.50
2023-01-13T20:53:19.850Z,71.60
2023-01-13T20:55:46.328Z,71.96
2023-01-13T20:58:12.789Z,72.59
2023-01-13T21:00:39.438Z,72.88
2023-01-13T21:03:06.081Z,73.05
2023-01-13T21:05:35.660Z,74.24
2023-01-13T21:08:02.389Z,73.58
2023-01-13T21:10:29.434Z,72.84
2023-01-13T21:12:56.029Z,72.88
2023-01-13T21:15:22.793Z,72.27
2023-01-13T21:17:50.936Z,73.18
2023-01-13T21:20:17.485Z,73.24
2023-01-13T21:22:45.754Z,72.97
2023-01-13T21:25:12.587Z,73.42
2023-01-13T21:27:39.056Z,74.17
2023-01-13T21:30:06.561Z,73.04
2023-01-13T21:32:33.187Z,72.99
2023-01-13T21:34:59.788Z,72.99
2023-01-13T21:37:26.306Z,73.42
2023-01-13T21:39:52.928Z,73.37
2023-01-13T21:42:19.519Z,72.93
2023-01-13T21:44:46.154Z,72.90
2023-01-13T21:47:17.296Z,73.83
2023-01-13T21:49:43.923Z,73.88
2023-01-13T21:52:11.959Z,74.64
2023-01-13T21:54:38.640Z,74.44
2023-01-13T21:57:05.237Z,74.17
2023-01-13T21:59:31.740Z,73.56
2023-01-13T22:02:23.998Z,73.57
2023-01-13T22:04:44.919Z,72.83
2023-01-13T22:07:11.356Z,73.22
2023-01-13T22:09:38.181Z,73.62
2023-01-13T22:12:05.048Z,73.72
2023-01-13T22:14:31.931Z,73.28
2023-01-13T22:16:58.545Z,73.34
2023-01-13T22:19:25.175Z,73.17
2023-01-13T22:21:51.839Z,73.34
2023-01-13T22:24:18.376Z,74.38
2023-01-13T22:26:45.250Z,74.29
2023-01-13T22:29:11.876Z,74.94
2023-01-13T22:31:38.486Z,75.13
2023-01-13T22:34:05.106Z,74.77
2023-01-13T22:36:31.785Z,75.97
2023-01-13T22:38:58.505Z,76.47
2023-01-13T22:41:25.074Z,76.44
2023-01-13T22:43:51.567Z,76.29
2023-01-13T22:46:18.139Z,76.13
2023-01-13T22:48:45.763Z,76.50
2023-01-13T22:51:16.131Z,76.33
2023-01-13T22:53:43.152Z,75.59
2023-01-13T22:56:21.379Z,76.39
2023-01-13T22:58:48.325Z,75.72
2023-01-13T23:01:16.652Z,76.08
2023-01-13T23:03:43.459Z,75.43
2023-01-13T23:06:10.591Z,75.99
2023-01-13T23:08:37.772Z,75.35
2023-01-13T23:11:08.887Z,75.35
2023-01-13T23:13:36.668Z,74.45
2023-01-13T23:16:08.057Z,73.76
2023-01-13T23:18:34.963Z,73.36
2023-01-13T23:21:10.817Z,73.73
2023-01-13T23:23:38.004Z,73.83
2023-01-13T23:26:06.063Z,73.63
2023-01-13T23:28:34.206Z,73.35
2023-01-13T23:31:01.032Z,73.64
2023-01-13T23:33:27.715Z,73.76
2023-01-13T23:36:00.886Z,73.84
2023-01-13T23:38:28.760Z,74.45
2023-01-13T23:40:55.634Z,75.54
2023-01-13T23:43:25.794Z,77.58
2023-01-13T23:45:53.389Z,77.22
2023-01-13T23:48:19.884Z,77.45
2023-01-13T23:50:56.960Z,77.64
2023-01-13T23:53:23.642Z,78.68
2023-01-13T23:55:56.606Z,79.41
2023-01-13T23:58:23.239Z,80.74
